Airfield :
LOGIN :

Register | Disclaimer

   EN    FR    IT 

 










Legend :    VFR   Marginal VFR   IFR   Intensive IFR   Very Intensive IFR
Visi :
Ceiling :
>= 8 km
>= 3000ft
5 to 8 km
1000 to 3000 ft
1500m to 5 km
500 to 1000 ft
800 to 1500m
200 to 500 ft
< 800m
< 200 ft
Symbols :   Thunderstorms  Fog  Heavy snow  Heavy precipitations  Wind > 20 kt
SIGMETs :     Misc.  Thunderstorms  Icing  Turbulence  Mountain Waves  Volcanic Ashes







- Airport Elevation : -15 ft
- IATA code : RTM


EHRD - Rotterdam Zestienhoven

CURRENT METAR :
  • 220625Z AUTO 27003KT 220V360 9999 NSC 12/08 Q1019 NOSIG

EXPIRED METARs :
  • 220555Z AUTO 30003KT 250V360 9999 NSC 12/08 Q1019 NOSIG
  • 220525Z AUTO 30003KT 270V340 9999 NCD 11/08 Q1019 NOSIG
  • 220455Z AUTO 31004KT 270V010 9999 SCT016 10/07 Q1019 NOSIG
  • 220425Z AUTO 28004KT 240V320 9999 OVC016 10/08 Q1019 NOSIG
  • 220355Z AUTO 31004KT 270V360 9999 OVC016 10/07 Q1019 NOSIG

TAF TAF EHRD
Valid from the 22 at 06:00 until the 23 at 12:00 UTC


220438Z 2206/2312 29008KT 9999 SCT025
BECMG 2220/2223 20005KT CAVOK
BECMG 2309/2312 26010KT
No reported NOTAMs for that airfield.



MET'MAP, your aeronautical weather chart ! - Copyright ORBIFLY December 2007 - Disclaimer

ORBIFLY MET'MAP TEAM :

Programming & Development : Alexandra Zaïnal
Concept & Development : Baudouin d'Aumeries
Co-Development & Prog : Marc-Olivier Méhu
Technical & hardware support : Manuel Goepfert

Contact : metmap@orbifly.com




SOURCES & CREDITS :

   NOAA